createdAt,value
2023-05-04T00:01:18.985Z,101524.38
2023-05-04T00:03:47.850Z,101535.69
2023-05-04T00:06:19.351Z,101531.53
2023-05-04T00:08:48.156Z,101531.44
2023-05-04T00:11:16.380Z,101539.53
2023-05-04T00:13:45.156Z,101543.66
2023-05-04T00:16:13.481Z,101543.75
2023-05-04T00:18:42.199Z,101550.00
2023-05-04T00:21:10.734Z,101557.59
2023-05-04T00:23:39.221Z,101554.63
2023-05-04T00:26:12.164Z,101557.66
2023-05-04T00:28:40.201Z,101560.34
2023-05-04T00:31:12.624Z,101561.00
2023-05-04T00:33:41.603Z,101559.56
2023-05-04T00:36:10.059Z,101559.72
2023-05-04T00:38:52.540Z,101555.41
2023-05-04T00:41:25.339Z,101560.00
2023-05-04T00:43:53.328Z,101560.56
2023-05-04T00:46:21.797Z,101570.75
2023-05-04T00:48:51.839Z,101567.25
2023-05-04T00:51:24.356Z,101567.88
2023-05-04T00:53:54.744Z,101566.22
2023-05-04T00:56:24.830Z,101571.72
2023-05-04T00:58:58.097Z,101561.88
2023-05-04T01:01:26.831Z,101564.56
2023-05-04T01:03:55.793Z,101560.16
2023-05-04T01:06:29.625Z,101564.97
2023-05-04T01:09:11.174Z,101552.47
2023-05-04T01:11:49.362Z,101552.66
2023-05-04T01:14:19.250Z,101556.56
2023-05-04T01:16:47.811Z,101557.78
2023-05-04T01:19:16.922Z,101548.75
2023-05-04T01:21:45.032Z,101549.41
2023-05-04T01:24:13.052Z,101549.91
2023-05-04T01:26:44.342Z,101549.72
2023-05-04T01:29:20.279Z,101549.13
2023-05-04T01:31:49.296Z,101558.75
2023-05-04T01:34:20.040Z,101560.53
2023-05-04T01:36:48.626Z,101561.03
2023-05-04T01:39:16.892Z,101549.75
2023-05-04T01:41:47.912Z,101544.53
2023-05-04T01:44:16.987Z,101560.84
2023-05-04T01:46:45.298Z,101566.66
2023-05-04T01:49:13.377Z,101565.16
2023-05-04T01:51:41.484Z,101560.84
2023-05-04T01:54:09.627Z,101558.41
2023-05-04T01:56:58.088Z,101557.56
2023-05-04T01:59:25.997Z,101562.22
2023-05-04T02:01:54.151Z,101566.72
2023-05-04T02:04:22.330Z,101562.22
2023-05-04T02:06:50.820Z,101570.09
2023-05-04T02:09:18.850Z,101568.91
2023-05-04T02:11:47.176Z,101566.06
2023-05-04T02:14:15.454Z,101563.16
2023-05-04T02:16:43.666Z,101562.03
2023-05-04T02:19:11.710Z,101575.31
2023-05-04T02:21:42.435Z,101558.06
2023-05-04T02:24:10.827Z,101565.50
2023-05-04T02:26:39.088Z,101550.28
2023-05-04T02:29:07.616Z,101554.06
2023-05-04T02:31:36.311Z,101563.44
2023-05-04T02:34:04.689Z,101559.00
2023-05-04T02:36:32.984Z,101550.78
2023-05-04T02:39:04.084Z,101549.41
2023-05-04T02:41:32.101Z,101555.38
2023-05-04T02:44:00.167Z,101554.06
2023-05-04T02:46:28.121Z,101541.91
2023-05-04T02:48:59.229Z,101543.97
2023-05-04T02:51:27.390Z,101539.28
2023-05-04T02:53:55.720Z,101540.59
2023-05-04T02:56:24.643Z,101535.69
2023-05-04T02:58:52.902Z,101541.06
2023-05-04T03:01:20.938Z,101543.09
2023-05-04T03:03:49.342Z,101543.66
2023-05-04T03:06:17.233Z,101559.38
2023-05-04T03:08:45.603Z,101567.81
2023-05-04T03:11:13.999Z,101573.06
2023-05-04T03:13:42.138Z,101572.03
2023-05-04T03:16:10.633Z,101577.28
2023-05-04T03:18:40.437Z,101570.31
2023-05-04T03:21:08.773Z,101550.19
2023-05-04T03:23:37.150Z,101549.56
2023-05-04T03:26:06.740Z,101534.50
2023-05-04T03:28:40.823Z,101529.81
2023-05-04T03:31:09.177Z,101528.97
2023-05-04T03:33:37.468Z,101531.56
2023-05-04T03:36:05.830Z,101550.88
2023-05-04T03:38:34.363Z,101534.66
2023-05-04T03:41:02.424Z,101545.19
2023-05-04T03:43:31.118Z,101552.69
2023-05-04T03:45:59.797Z,101539.44
2023-05-04T03:48:28.135Z,101542.66
2023-05-04T03:50:56.570Z,101537.09
2023-05-04T03:53:24.727Z,101546.78
2023-05-04T03:55:53.097Z,101552.50
2023-05-04T03:58:21.550Z,101549.91
2023-05-04T04:00:49.562Z,101549.22
2023-05-04T04:03:18.228Z,101541.16
2023-05-04T04:05:46.496Z,101545.94
2023-05-04T04:08:14.744Z,101551.84
2023-05-04T04:10:43.258Z,101547.84
2023-05-04T04:13:11.657Z,101543.31
2023-05-04T04:15:42.045Z,101544.44
2023-05-04T04:18:11.691Z,101550.31
2023-05-04T04:20:39.613Z,101543.53
2023-05-04T04:23:07.667Z,101540.84
2023-05-04T04:25:35.774Z,101538.97
2023-05-04T04:28:05.103Z,101545.22
2023-05-04T04:30:33.609Z,101538.47
2023-05-04T04:33:02.448Z,101535.78
2023-05-04T04:35:33.525Z,101539.78
2023-05-04T04:38:03.797Z,101537.69
2023-05-04T04:40:32.406Z,101544.31
2023-05-04T04:43:00.306Z,101533.41
2023-05-04T04:45:28.611Z,101539.72
2023-05-04T04:47:56.663Z,101544.88
2023-05-04T04:50:25.360Z,101537.63
2023-05-04T04:52:53.505Z,101536.59
2023-05-04T04:55:21.483Z,101541.19
2023-05-04T04:57:49.421Z,101534.34
2023-05-04T05:00:18.249Z,101538.22
2023-05-04T05:05:31.832Z,101526.97
2023-05-04T05:08:00.967Z,101520.22
2023-05-04T05:10:29.330Z,101545.81
2023-05-04T05:12:57.550Z,101534.22
2023-05-04T05:15:26.180Z,101529.94
2023-05-04T05:17:54.600Z,101533.03
2023-05-04T05:20:24.041Z,101526.81
2023-05-04T05:22:52.651Z,101532.75
2023-05-04T05:25:21.410Z,101529.19
2023-05-04T05:27:50.698Z,101531.41
2023-05-04T05:30:19.390Z,101524.31
2023-05-04T05:32:49.315Z,101526.66
2023-05-04T05:35:17.717Z,101526.88
2023-05-04T05:37:46.252Z,101537.00
2023-05-04T05:40:14.744Z,101540.34
2023-05-04T05:42:43.353Z,101535.50
2023-05-04T05:45:11.968Z,101535.44
2023-05-04T05:47:40.145Z,101538.44
2023-05-04T05:50:08.933Z,101538.78
2023-05-04T05:52:37.647Z,101544.63
2023-05-04T05:55:06.308Z,101544.44
2023-05-04T05:57:34.525Z,101542.06
2023-05-04T06:00:03.882Z,101544.50
2023-05-04T06:02:33.806Z,101537.19
2023-05-04T06:05:03.291Z,101537.75
2023-05-04T06:07:32.409Z,101540.59
2023-05-04T06:10:00.700Z,101550.94
2023-05-04T06:12:28.810Z,101550.75
2023-05-04T06:14:56.980Z,101547.97
2023-05-04T06:17:25.339Z,101544.97
2023-05-04T06:19:53.583Z,101546.34
2023-05-04T06:22:22.154Z,101557.34
2023-05-04T06:24:50.391Z,101551.47
2023-05-04T06:27:19.104Z,101558.78
2023-05-04T06:29:47.637Z,101561.97
2023-05-04T06:32:15.795Z,101565.56
2023-05-04T06:34:44.796Z,101557.22
2023-05-04T06:37:15.561Z,101556.31
2023-05-04T06:39:44.244Z,101556.41
2023-05-04T06:42:12.702Z,101554.81
2023-05-04T06:44:40.704Z,101557.88
2023-05-04T06:47:08.757Z,101559.38
2023-05-04T06:49:36.886Z,101552.31
2023-05-04T06:52:05.460Z,101542.25
2023-05-04T06:54:33.753Z,101556.66
2023-05-04T06:57:05.482Z,101555.59
2023-05-04T06:59:34.507Z,101556.84
2023-05-04T07:02:02.572Z,101560.06
2023-05-04T07:04:30.724Z,101555.81
2023-05-04T07:06:58.839Z,101565.03
2023-05-04T07:09:27.281Z,101564.94
2023-05-04T07:11:55.627Z,101560.25
2023-05-04T07:14:24.241Z,101557.19
2023-05-04T07:16:53.163Z,101559.25
2023-05-04T07:19:21.796Z,101551.81
2023-05-04T07:21:50.109Z,101548.38
2023-05-04T07:24:18.418Z,101552.28
2023-05-04T07:26:47.034Z,101557.78
2023-05-04T07:29:17.174Z,101554.38
2023-05-04T07:31:45.485Z,101556.44
2023-05-04T07:34:14.034Z,101557.13
2023-05-04T07:36:45.480Z,101559.50
2023-05-04T07:39:15.938Z,101551.81
2023-05-04T07:41:44.468Z,101544.63
2023-05-04T07:44:13.178Z,101539.03
2023-05-04T07:46:44.135Z,101542.09
2023-05-04T07:49:14.519Z,101532.81
2023-05-04T07:51:42.512Z,101526.63
2023-05-04T07:54:11.121Z,101540.34
2023-05-04T07:56:39.260Z,101534.38
2023-05-04T07:59:07.356Z,101529.59
2023-05-04T08:01:36.508Z,101524.97
2023-05-04T08:04:04.910Z,101529.22
2023-05-04T08:06:35.774Z,101531.31
2023-05-04T08:09:03.930Z,101522.44
2023-05-04T08:11:34.402Z,101522.44
2023-05-04T08:14:03.078Z,101528.06
2023-05-04T08:16:32.803Z,101536.28
2023-05-04T08:19:01.709Z,101527.72
2023-05-04T08:21:29.968Z,101518.94
2023-05-04T08:23:59.116Z,101523.03
2023-05-04T08:26:27.691Z,101510.69
2023-05-04T08:29:07.642Z,101517.88
2023-05-04T08:31:36.106Z,101519.19
2023-05-04T08:34:05.254Z,101512.31
2023-05-04T08:36:33.985Z,101506.97
2023-05-04T08:39:02.208Z,101503.06
2023-05-04T08:41:31.228Z,101509.38
2023-05-04T08:43:59.588Z,101501.13
2023-05-04T08:46:31.070Z,101507.06
2023-05-04T08:48:59.280Z,101507.84
2023-05-04T08:51:27.685Z,101505.50
2023-05-04T08:53:56.252Z,101499.97
2023-05-04T08:56:24.664Z,101502.72
2023-05-04T08:58:53.238Z,101493.19
2023-05-04T09:01:22.722Z,101488.81
2023-05-04T09:03:52.740Z,101486.31
2023-05-04T09:06:21.248Z,101490.09
2023-05-04T09:08:49.363Z,101490.22
2023-05-04T09:11:17.542Z,101469.28
2023-05-04T09:13:45.706Z,101478.41
2023-05-04T09:16:15.643Z,101472.41
2023-05-04T09:18:44.968Z,101482.03
2023-05-04T09:21:13.143Z,101476.78
2023-05-04T09:23:49.716Z,101476.53
2023-05-04T09:26:28.660Z,101472.75
2023-05-04T09:28:57.880Z,101480.97
2023-05-04T09:31:26.969Z,101474.03
2023-05-04T09:34:01.153Z,101475.63
2023-05-04T09:36:29.758Z,101477.50
2023-05-04T09:38:57.966Z,101473.91
2023-05-04T09:41:34.253Z,101468.63
2023-05-04T09:44:03.800Z,101463.50
2023-05-04T09:46:32.259Z,101463.91
2023-05-04T09:49:01.177Z,101468.16
2023-05-04T09:51:29.353Z,101467.81
2023-05-04T09:53:59.065Z,101470.94
2023-05-04T09:56:30.285Z,101458.38
2023-05-04T09:59:02.340Z,101454.81
2023-05-04T10:01:35.291Z,101451.09
2023-05-04T10:04:04.903Z,101453.69
2023-05-04T10:06:38.276Z,101455.63
2023-05-04T10:09:10.299Z,101457.41
2023-05-04T10:11:38.440Z,101457.16
2023-05-04T10:14:07.683Z,101445.88
2023-05-04T10:16:52.584Z,101444.91
2023-05-04T10:19:30.092Z,101443.22
2023-05-04T10:22:25.884Z,101438.56
2023-05-04T10:25:22.911Z,101445.13
2023-05-04T10:28:17.084Z,101436.88
2023-05-04T10:30:46.085Z,101422.56
2023-05-04T10:33:14.450Z,101424.31
2023-05-04T10:35:56.393Z,101423.91
2023-05-04T10:38:45.603Z,101436.78
2023-05-04T10:41:22.400Z,101426.47
2023-05-04T10:43:53.746Z,101427.50
2023-05-04T10:46:23.194Z,101416.56
2023-05-04T10:48:52.254Z,101425.22
2023-05-04T10:51:21.604Z,101425.59
2023-05-04T10:53:50.048Z,101425.59
2023-05-04T10:56:25.765Z,101412.94
2023-05-04T10:58:54.842Z,101405.91
2023-05-04T11:01:23.576Z,101413.53
2023-05-04T11:03:52.859Z,101409.81
2023-05-04T11:06:25.297Z,101408.47
2023-05-04T11:09:02.977Z,101393.00
2023-05-04T11:11:37.013Z,101394.97
2023-05-04T11:14:05.188Z,101400.00
2023-05-04T11:16:33.712Z,101386.84
2023-05-04T11:19:09.959Z,101384.50
2023-05-04T11:21:38.462Z,101377.13
2023-05-04T11:24:06.913Z,101373.47
2023-05-04T11:26:48.286Z,101361.13
2023-05-04T11:29:17.536Z,101354.59
2023-05-04T11:31:55.222Z,101365.84
2023-05-04T11:34:24.009Z,101358.97
2023-05-04T11:36:52.254Z,101355.66
2023-05-04T11:39:23.722Z,101348.81
2023-05-04T11:41:53.394Z,101342.78
2023-05-04T11:44:22.931Z,101352.25
2023-05-04T11:46:52.159Z,101347.78
2023-05-04T11:49:21.094Z,101348.06
2023-05-04T11:51:49.780Z,101346.44
2023-05-04T11:54:22.596Z,101348.44
2023-05-04T11:56:50.800Z,101335.38
2023-05-04T11:59:19.145Z,101345.88
2023-05-04T12:01:48.869Z,101334.16
2023-05-04T12:04:17.429Z,101338.91
2023-05-04T12:06:46.912Z,101330.13
2023-05-04T12:09:15.295Z,101330.53
2023-05-04T12:11:54.941Z,101327.25
2023-05-04T12:14:24.801Z,101322.53
2023-05-04T12:16:58.069Z,101318.38
2023-05-04T12:19:26.364Z,101320.53
2023-05-04T12:21:55.425Z,101318.66
2023-05-04T12:24:24.482Z,101312.91
2023-05-04T12:26:52.716Z,101311.16
2023-05-04T12:29:21.268Z,101303.00
2023-05-04T12:31:49.635Z,101294.31
2023-05-04T12:34:18.197Z,101292.59
2023-05-04T12:36:46.742Z,101298.22
2023-05-04T12:39:14.807Z,101292.41
2023-05-04T12:41:42.904Z,101287.00
2023-05-04T12:44:12.125Z,101285.81
2023-05-04T12:46:40.459Z,101290.59
2023-05-04T12:49:08.520Z,101288.53
2023-05-04T12:51:36.706Z,101288.81
2023-05-04T12:54:04.814Z,101276.50
2023-05-04T12:56:34.139Z,101269.84
2023-05-04T12:59:02.597Z,101274.97
2023-05-04T13:01:31.011Z,101270.59
2023-05-04T13:03:59.272Z,101276.47
2023-05-04T13:06:27.830Z,101273.53
2023-05-04T13:08:55.865Z,101268.63
2023-05-04T13:11:25.466Z,101269.19
2023-05-04T13:13:53.792Z,101259.94
2023-05-04T13:16:22.107Z,101257.69
2023-05-04T13:18:50.984Z,101253.72
2023-05-04T13:21:23.287Z,101248.41
2023-05-04T13:23:53.655Z,101246.59
2023-05-04T13:26:21.742Z,101236.22
2023-05-04T13:28:51.751Z,101236.13
2023-05-04T13:31:19.902Z,101232.97
2023-05-04T13:33:53.464Z,101227.38
2023-05-04T13:36:30.720Z,101224.38
2023-05-04T13:38:59.296Z,101230.81
2023-05-04T13:41:27.972Z,101230.03
2023-05-04T13:43:56.627Z,101229.28
2023-05-04T13:46:25.251Z,101223.72
2023-05-04T13:48:57.196Z,101219.63
2023-05-04T13:51:26.123Z,101226.13
2023-05-04T13:53:55.008Z,101216.34
2023-05-04T13:56:23.995Z,101219.00
2023-05-04T13:58:53.223Z,101215.31
2023-05-04T14:01:21.312Z,101209.47
2023-05-04T14:03:49.552Z,101206.63
2023-05-04T14:06:17.789Z,101205.63
2023-05-04T14:08:46.149Z,101202.31
2023-05-04T14:11:14.422Z,101200.50
2023-05-04T14:13:42.761Z,101202.38
2023-05-04T14:16:11.331Z,101196.63
2023-05-04T14:18:39.983Z,101189.47
2023-05-04T14:21:08.063Z,101192.28
2023-05-04T14:23:37.902Z,101194.88
2023-05-04T14:26:06.338Z,101187.41
2023-05-04T14:28:34.333Z,101187.75
2023-05-04T14:31:09.024Z,101177.81
2023-05-04T14:33:38.319Z,101177.81
2023-05-04T14:36:07.093Z,101179.66
2023-05-04T14:38:36.340Z,101175.03
2023-05-04T14:41:05.681Z,101178.53
2023-05-04T14:43:34.521Z,101179.66
2023-05-04T14:46:02.768Z,101171.88
2023-05-04T14:48:31.159Z,101176.72
2023-05-04T14:50:59.336Z,101176.56
2023-05-04T14:53:29.629Z,101175.22
2023-05-04T14:55:58.102Z,101165.38
2023-05-04T14:58:26.500Z,101168.91
2023-05-04T15:00:59.822Z,101159.22
2023-05-04T15:03:28.902Z,101162.13
2023-05-04T15:05:58.189Z,101168.84
2023-05-04T15:08:26.380Z,101163.06
2023-05-04T15:10:58.811Z,101156.09
2023-05-04T15:13:27.297Z,101164.72
2023-05-04T15:15:55.284Z,101158.38
2023-05-04T15:18:24.860Z,101157.41
2023-05-04T15:20:54.322Z,101150.06
2023-05-04T15:23:22.788Z,101147.91
2023-05-04T15:25:51.150Z,101149.13
2023-05-04T15:28:23.024Z,101149.50
2023-05-04T15:30:51.012Z,101147.84
2023-05-04T15:33:19.093Z,101142.75
2023-05-04T15:35:49.563Z,101148.38
2023-05-04T15:38:22.047Z,101154.91
2023-05-04T15:40:53.847Z,101151.53
2023-05-04T15:43:22.342Z,101145.72
2023-05-04T15:45:53.166Z,101136.84
2023-05-04T15:48:21.484Z,101138.06
2023-05-04T15:50:55.243Z,101150.38
2023-05-04T15:53:29.230Z,101143.66
2023-05-04T15:55:57.956Z,101150.97
2023-05-04T15:58:26.910Z,101140.91
2023-05-04T16:00:55.799Z,101145.69
2023-05-04T16:03:24.436Z,101150.47
2023-05-04T16:05:52.612Z,101148.59
2023-05-04T16:08:20.746Z,101150.97
2023-05-04T16:10:49.812Z,101147.72
2023-05-04T16:13:18.115Z,101149.56
2023-05-04T16:15:50.541Z,101146.28
2023-05-04T16:18:20.492Z,101149.16
2023-05-04T16:20:49.120Z,101157.34
2023-05-04T16:23:18.143Z,101148.94
2023-05-04T16:25:46.697Z,101153.66
2023-05-04T16:28:17.064Z,101153.91
2023-05-04T16:30:49.807Z,101153.88
2023-05-04T16:33:20.082Z,101152.13
2023-05-04T16:35:48.387Z,101157.16
2023-05-04T16:38:17.210Z,101154.16
2023-05-04T16:40:45.643Z,101158.16
2023-05-04T16:43:15.942Z,101166.59
2023-05-04T16:45:46.104Z,101163.25
2023-05-04T16:48:14.298Z,101158.03
2023-05-04T16:50:42.450Z,101166.28
2023-05-04T16:53:11.506Z,101160.59
2023-05-04T16:55:41.152Z,101155.06
2023-05-04T16:58:09.314Z,101164.88
2023-05-04T17:00:37.398Z,101150.31
2023-05-04T17:03:05.530Z,101160.81
2023-05-04T17:05:35.370Z,101154.41
2023-05-04T17:08:03.870Z,101157.91
2023-05-04T17:10:32.057Z,101161.19
2023-05-04T17:13:02.275Z,101160.94
2023-05-04T17:15:31.344Z,101158.44
2023-05-04T17:18:01.232Z,101160.91
2023-05-04T17:20:32.354Z,101169.28
2023-05-04T17:23:00.929Z,101167.75
2023-05-04T17:25:34.399Z,101167.91
2023-05-04T17:28:02.543Z,101169.38
2023-05-04T17:30:31.064Z,101180.13
2023-05-04T17:32:58.969Z,101175.16
2023-05-04T17:35:29.863Z,101185.91
2023-05-04T17:37:58.977Z,101183.75
2023-05-04T17:40:30.266Z,101183.44
2023-05-04T17:42:58.198Z,101182.88
2023-05-04T17:45:26.571Z,101186.72
2023-05-04T17:47:54.590Z,101186.16
2023-05-04T17:50:25.899Z,101173.72
2023-05-04T17:52:58.185Z,101180.31
2023-05-04T17:55:27.481Z,101186.19
2023-05-04T17:57:56.356Z,101182.03
2023-05-04T18:00:25.908Z,101187.03
2023-05-04T18:02:54.526Z,101177.72
2023-05-04T18:05:23.820Z,101183.44
2023-05-04T18:07:52.346Z,101177.31
2023-05-04T18:10:21.177Z,101185.63
2023-05-04T18:12:50.411Z,101185.03
2023-05-04T18:15:18.821Z,101184.63
2023-05-04T18:17:49.645Z,101185.00
2023-05-04T18:20:17.909Z,101178.19
2023-05-04T18:22:47.296Z,101178.72
2023-05-04T18:25:19.399Z,101186.00
2023-05-04T18:27:49.466Z,101177.28
2023-05-04T18:30:22.412Z,101176.59
2023-05-04T18:32:52.488Z,101174.84
2023-05-04T18:35:22.112Z,101165.56
2023-05-04T18:37:50.397Z,101169.41
2023-05-04T18:40:18.853Z,101169.84
2023-05-04T18:42:46.869Z,101161.84
2023-05-04T18:45:14.845Z,101160.81
2023-05-04T18:47:43.352Z,101163.97
2023-05-04T18:50:14.064Z,101165.34
2023-05-04T18:52:45.670Z,101160.66
2023-05-04T18:55:27.147Z,101162.81
2023-05-04T18:57:57.000Z,101157.09
2023-05-04T19:00:31.178Z,101150.13
2023-05-04T19:03:05.355Z,101149.78
2023-05-04T19:05:44.760Z,101152.75
2023-05-04T19:08:13.217Z,101150.19
2023-05-04T19:10:43.473Z,101145.88
2023-05-04T19:13:11.868Z,101141.47
2023-05-04T19:15:54.347Z,101143.31
2023-05-04T19:18:24.824Z,101149.59
2023-05-04T19:20:58.613Z,101142.31
2023-05-04T19:23:27.450Z,101148.16
2023-05-04T19:26:04.683Z,101147.94
2023-05-04T19:28:32.857Z,101139.94
2023-05-04T19:31:03.903Z,101140.44
2023-05-04T19:33:44.456Z,101145.59
2023-05-04T19:36:36.981Z,101142.41
2023-05-04T19:39:05.355Z,101138.41
2023-05-04T19:41:33.515Z,101138.69
2023-05-04T19:44:18.446Z,101138.69
2023-05-04T19:46:47.920Z,101145.25
2023-05-04T19:49:16.299Z,101139.41
2023-05-04T19:51:45.172Z,101132.97
2023-05-04T19:56:57.362Z,101134.09
2023-05-04T19:59:25.829Z,101136.22
2023-05-04T20:01:53.984Z,101121.38
2023-05-04T20:04:22.574Z,101125.34
2023-05-04T20:06:50.864Z,101123.78
2023-05-04T20:09:19.891Z,101132.09
2023-05-04T20:11:48.339Z,101129.97
2023-05-04T20:14:16.743Z,101134.41
2023-05-04T20:16:45.280Z,101129.09
2023-05-04T20:19:13.483Z,101125.94
2023-05-04T20:21:44.911Z,101130.38
2023-05-04T20:24:13.364Z,101131.38
2023-05-04T20:26:44.229Z,101131.53
2023-05-04T20:29:12.519Z,101137.66
2023-05-04T20:31:41.551Z,101127.94
2023-05-04T20:34:09.989Z,101132.78
2023-05-04T20:36:38.497Z,101136.03
2023-05-04T20:39:07.510Z,101128.72
2023-05-04T20:41:39.177Z,101129.53
2023-05-04T20:44:07.180Z,101123.50
2023-05-04T20:46:35.387Z,101126.00
2023-05-04T20:49:03.843Z,101133.09
2023-05-04T20:51:33.095Z,101143.03
2023-05-04T20:54:01.483Z,101138.16
2023-05-04T20:56:30.010Z,101138.94
2023-05-04T20:58:58.403Z,101137.63
2023-05-04T21:01:26.442Z,101135.31
2023-05-04T21:03:55.209Z,101141.81
2023-05-04T21:06:24.681Z,101137.84
2023-05-04T21:08:52.632Z,101135.84
2023-05-04T21:11:21.513Z,101137.09
2023-05-04T21:13:49.750Z,101134.06
2023-05-04T21:16:18.513Z,101140.50
2023-05-04T21:18:47.045Z,101149.34
2023-05-04T21:21:18.719Z,101141.06
2023-05-04T21:23:47.032Z,101154.59
2023-05-04T21:26:15.253Z,101151.44
2023-05-04T21:28:43.810Z,101146.66
2023-05-04T21:31:11.812Z,101143.16
2023-05-04T21:33:40.300Z,101138.50
2023-05-04T21:36:15.304Z,101142.13
2023-05-04T21:38:43.289Z,101128.75
2023-05-04T21:41:15.250Z,101135.03
2023-05-04T21:43:43.560Z,101133.94
2023-05-04T21:46:13.116Z,101130.63
2023-05-04T21:48:41.482Z,101133.34
2023-05-04T21:51:09.723Z,101136.28
2023-05-04T21:53:37.869Z,101126.59
2023-05-04T21:56:07.953Z,101133.09
2023-05-04T21:58:45.697Z,101129.31
2023-05-04T22:01:20.442Z,101118.63
2023-05-04T22:03:50.143Z,101125.88
2023-05-04T22:06:19.256Z,101110.59
2023-05-04T22:08:47.748Z,101120.53
2023-05-04T22:11:16.085Z,101115.06
2023-05-04T22:13:44.696Z,101114.28
2023-05-04T22:16:13.594Z,101113.41
2023-05-04T22:18:41.770Z,101108.25
2023-05-04T22:21:09.922Z,101104.22
2023-05-04T22:23:41.185Z,101098.78
2023-05-04T22:26:11.782Z,101102.59
2023-05-04T22:28:39.846Z,101094.88
2023-05-04T22:31:08.508Z,101092.41
2023-05-04T22:33:36.778Z,101093.41
2023-05-04T22:36:05.206Z,101093.53
2023-05-04T22:38:36.686Z,101082.94
2023-05-04T22:41:04.871Z,101079.78
2023-05-04T22:43:36.409Z,101076.44
2023-05-04T22:46:04.872Z,101069.72
2023-05-04T22:48:34.635Z,101068.09
2023-05-04T22:51:02.861Z,101072.88
2023-05-04T22:53:38.168Z,101065.16
2023-05-04T22:56:06.977Z,101066.50
2023-05-04T22:58:35.519Z,101056.31
2023-05-04T23:01:08.991Z,101057.53
2023-05-04T23:03:37.491Z,101057.03
2023-05-04T23:06:06.107Z,101047.56
2023-05-04T23:08:34.506Z,101051.50
2023-05-04T23:11:02.601Z,101045.47
2023-05-04T23:13:31.227Z,101043.59
2023-05-04T23:16:01.419Z,101043.59
2023-05-04T23:18:30.103Z,101032.03
2023-05-04T23:20:58.254Z,101038.06
2023-05-04T23:23:26.605Z,101036.72
2023-05-04T23:25:54.800Z,101034.59
2023-05-04T23:28:22.825Z,101029.53
2023-05-04T23:30:50.838Z,101023.13
2023-05-04T23:33:19.181Z,101020.34
2023-05-04T23:35:47.685Z,101025.00
2023-05-04T23:38:16.613Z,101021.75
2023-05-04T23:40:45.145Z,101026.78
2023-05-04T23:43:13.257Z,101019.50
2023-05-04T23:45:41.369Z,101016.31
2023-05-04T23:48:09.577Z,101018.00
2023-05-04T23:50:40.450Z,101018.63
2023-05-04T23:53:10.897Z,101006.94
2023-05-04T23:55:38.930Z,101010.25
2023-05-04T23:58:07.042Z,101008.09
